Time;durP1;ratioP1;P1;durP2;ratioP2;P2;SDS_P1;SDS_P2;PMS_P1;PMS_P2;Temp;Humidity;BMP_temperature;BMP_pressure;BME280_temperature;BME280_humidity;BME280_pressure;Samples;Min_cycle;Max_cycle;Signal;HPM_P1;HPM_P2
2021/12/23 00:01:32;;;;;;;31.43;16.10;;;-0.10;99.90;;;;;;5058669;28;20211;-76
2021/12/23 00:03:58;;;;;;;35.20;17.67;;;-0.20;99.90;;;;;;5061464;28;20637;-77
2021/12/23 00:06:24;;;;;;;31.17;17.10;;;-0.20;99.90;;;;;;5019302;28;20757;-76
2021/12/23 00:08:49;;;;;;;34.93;17.00;;;-0.20;99.90;;;;;;5060247;28;20277;-76
2021/12/23 00:11:15;;;;;;;27.00;16.40;;;-0.20;99.90;;;;;;5041368;28;20276;-76
2021/12/23 00:13:49;;;;;;;29.03;16.07;;;-0.10;99.90;;;;;;5041078;28;20722;-76
2021/12/23 00:16:19;;;;;;;35.60;17.33;;;-0.20;99.90;;;;;;5041919;28;20700;-76
2021/12/23 00:18:53;;;;;;;28.43;16.77;;;-0.20;99.90;;;;;;5040778;28;20645;-76
2021/12/23 00:24:03;;;;;;;27.83;15.93;;;-0.20;99.90;;;;;;5052344;28;22890;-78
2021/12/23 00:26:29;;;;;;;28.40;16.03;;;-0.20;99.90;;;;;;5057557;28;21021;-76
2021/12/23 00:28:54;;;;;;;27.47;14.10;;;-0.20;99.90;;;;;;5046065;28;20681;-76
2021/12/23 00:31:21;;;;;;;31.33;15.70;;;-0.20;99.90;;;;;;5060265;28;20642;-76
2021/12/23 00:33:47;;;;;;;26.50;15.80;;;-0.20;99.90;;;;;;5044220;28;20188;-78
2021/12/23 00:36:13;;;;;;;27.13;14.80;;;-0.20;99.90;;;;;;5042938;28;20732;-77
2021/12/23 00:38:46;;;;;;;30.00;16.73;;;-0.20;99.90;;;;;;5060670;28;20214;-77
2021/12/23 00:41:14;;;;;;;34.63;18.17;;;-0.20;99.90;;;;;;5042323;28;20645;-77
2021/12/23 00:43:42;;;;;;;29.43;16.33;;;-0.10;99.90;;;;;;5038767;28;20633;-76
2021/12/23 00:46:08;;;;;;;29.73;15.50;;;-0.20;99.90;;;;;;5060045;28;20618;-75
2021/12/23 00:48:35;;;;;;;31.03;16.47;;;-0.30;99.90;;;;;;5061067;28;20653;-75
2021/12/23 00:51:02;;;;;;;35.03;19.40;;;-0.20;99.90;;;;;;5061575;28;20356;-76
2021/12/23 00:53:36;;;;;;;29.63;15.97;;;-0.20;99.90;;;;;;5057268;28;20615;-77
2021/12/23 00:56:02;;;;;;;31.00;16.07;;;-0.30;99.90;;;;;;5043008;28;20632;-75
2021/12/23 00:58:28;;;;;;;36.60;18.90;;;-0.20;99.90;;;;;;5060161;28;21313;-76
2021/12/23 01:01:00;;;;;;;31.73;16.10;;;-0.20;99.90;;;;;;5041434;28;20633;-76
2021/12/23 01:03:28;;;;;;;29.83;16.87;;;-0.20;99.90;;;;;;5031653;28;20192;-76
2021/12/23 01:05:55;;;;;;;36.53;16.63;;;-0.20;99.90;;;;;;5042860;28;20640;-76
2021/12/23 01:08:20;;;;;;;29.30;16.10;;;-0.30;99.90;;;;;;5059190;28;20668;-75
2021/12/23 01:10:50;;;;;;;27.20;15.97;;;-0.30;99.90;;;;;;5059792;28;20634;-76
2021/12/23 01:13:18;;;;;;;27.70;15.67;;;-0.30;99.90;;;;;;5057763;28;20203;-75
2021/12/23 01:16:05;;;;;;;27.50;15.57;;;-0.20;99.90;;;;;;5042204;28;21159;-77
2021/12/23 01:18:42;;;;;;;28.43;15.67;;;-0.20;99.90;;;;;;5059628;28;20685;-76
2021/12/23 01:21:17;;;;;;;30.67;15.70;;;-0.20;99.90;;;;;;5057969;28;20645;-77
2021/12/23 01:23:56;;;;;;;24.03;14.30;;;-0.20;99.90;;;;;;5039947;28;20622;-76
2021/12/23 01:26:24;;;;;;;23.70;14.80;;;-0.20;99.90;;;;;;5047695;28;20671;-75
2021/12/23 01:28:59;;;;;;;25.23;13.90;;;-0.20;99.90;;;;;;5046424;28;20743;-76
2021/12/23 01:31:27;;;;;;;23.53;13.83;;;-0.20;99.90;;;;;;5045798;28;20635;-75
2021/12/23 01:33:53;;;;;;;22.07;12.50;;;-0.20;99.90;;;;;;5064390;28;20608;-75
2021/12/23 01:36:19;;;;;;;27.00;15.17;;;-0.20;99.90;;;;;;5047889;28;21177;-75
2021/12/23 01:38:45;;;;;;;27.50;15.37;;;-0.20;99.90;;;;;;5048454;28;20765;-75
2021/12/23 01:41:12;;;;;;;27.70;14.70;;;-0.20;99.90;;;;;;5056650;28;20665;-75
2021/12/23 01:43:38;;;;;;;25.53;14.13;;;-0.10;99.90;;;;;;5053508;28;20984;-76
2021/12/23 01:46:04;;;;;;;28.13;15.87;;;-0.10;99.90;;;;;;5064449;28;20638;-76
2021/12/23 01:48:30;;;;;;;26.03;15.23;;;-0.20;99.90;;;;;;5045447;28;20207;-76
2021/12/23 01:50:55;;;;;;;26.13;15.67;;;-0.10;99.90;;;;;;5046539;28;21005;-75
2021/12/23 01:53:21;;;;;;;29.30;14.33;;;0.10;99.90;;;;;;5045876;28;20605;-79
2021/12/23 01:55:47;;;;;;;26.57;14.47;;;-0.10;99.90;;;;;;5058525;28;20184;-76
2021/12/23 01:58:18;;;;;;;25.67;14.77;;;0.00;99.90;;;;;;5063012;28;20207;-75
2021/12/23 02:00:47;;;;;;;29.23;14.80;;;-0.10;99.90;;;;;;5064266;28;20699;-75
2021/12/23 02:03:15;;;;;;;21.97;13.30;;;-0.10;99.90;;;;;;5060982;28;20606;-75
2021/12/23 02:05:42;;;;;;;23.53;14.07;;;-0.10;99.90;;;;;;5045540;28;20843;-75
2021/12/23 02:08:11;;;;;;;27.30;14.63;;;-0.10;99.90;;;;;;5045403;28;21251;-76
2021/12/23 02:10:39;;;;;;;26.10;15.10;;;-0.10;99.90;;;;;;5060043;28;20641;-76
2021/12/23 02:13:04;;;;;;;26.10;14.87;;;0.00;99.90;;;;;;5037513;28;20681;-76
2021/12/23 02:15:30;;;;;;;25.60;14.90;;;0.00;99.90;;;;;;5045220;28;20658;-75
2021/12/23 02:17:56;;;;;;;28.07;14.80;;;0.00;99.90;;;;;;5044965;28;20704;-75
2021/12/23 02:20:31;;;;;;;25.83;14.07;;;-0.10;99.90;;;;;;5044877;28;20630;-75
2021/12/23 02:22:58;;;;;;;25.77;13.87;;;0.00;99.90;;;;;;5062674;28;20216;-76
2021/12/23 02:25:24;;;;;;;25.90;14.37;;;0.00;99.90;;;;;;5043855;28;20609;-75
2021/12/23 02:27:54;;;;;;;24.23;14.20;;;0.00;99.90;;;;;;5046441;28;21173;-76
2021/12/23 02:30:24;;;;;;;22.73;13.73;;;0.00;99.90;;;;;;5058165;28;21202;-76
2021/12/23 02:32:50;;;;;;;20.73;13.67;;;0.00;99.90;;;;;;5048231;28;21227;-75
2021/12/23 02:35:17;;;;;;;24.20;14.90;;;0.10;99.90;;;;;;5064115;28;21605;-76
2021/12/23 02:37:44;;;;;;;25.23;13.80;;;0.10;99.90;;;;;;5045099;28;20641;-76
2021/12/23 02:40:26;;;;;;;24.40;14.40;;;0.10;99.90;;;;;;5044605;28;20633;-75
2021/12/23 02:42:55;;;;;;;24.57;14.20;;;0.10;99.90;;;;;;5053537;28;20646;-78
2021/12/23 02:45:23;;;;;;;23.23;13.63;;;0.00;99.90;;;;;;5076104;28;20712;-76
2021/12/23 02:47:48;;;;;;;27.13;15.10;;;0.10;99.90;;;;;;5057686;28;20634;-77
2021/12/23 02:50:17;;;;;;;26.50;14.17;;;0.00;99.90;;;;;;5042033;28;20653;-75
2021/12/23 02:52:42;;;;;;;26.27;14.37;;;0.00;99.90;;;;;;5064060;28;20263;-76
2021/12/23 02:55:08;;;;;;;24.30;15.00;;;0.00;99.90;;;;;;5063534;28;20698;-75
2021/12/23 02:57:34;;;;;;;22.77;12.83;;;0.00;99.90;;;;;;5061609;28;20215;-75
2021/12/23 03:00:04;;;;;;;26.10;15.43;;;0.10;99.90;;;;;;5043635;28;20224;-75
2021/12/23 03:02:32;;;;;;;24.33;14.00;;;0.10;99.90;;;;;;5044796;28;20534;-75
2021/12/23 03:04:57;;;;;;;24.00;12.87;;;0.00;99.90;;;;;;5043602;28;21329;-75
2021/12/23 03:07:23;;;;;;;23.17;12.70;;;0.00;99.90;;;;;;5052540;28;20748;-76
2021/12/23 03:09:49;;;;;;;24.13;14.67;;;0.10;99.90;;;;;;5040955;28;20231;-75
2021/12/23 03:12:14;;;;;;;22.50;13.43;;;0.10;99.90;;;;;;5039414;28;20192;-77
2021/12/23 03:14:41;;;;;;;22.80;14.47;;;0.20;99.90;;;;;;5041875;28;20185;-76
2021/12/23 03:17:11;;;;;;;24.13;14.90;;;0.10;99.90;;;;;;5041717;28;20966;-76
2021/12/23 03:19:36;;;;;;;25.67;13.93;;;0.10;99.90;;;;;;5059829;28;20694;-75
2021/12/23 03:22:03;;;;;;;22.13;13.47;;;0.10;99.90;;;;;;5060903;28;21124;-76
2021/12/23 03:24:32;;;;;;;24.27;13.70;;;0.10;99.90;;;;;;5050975;28;20389;-78
2021/12/23 03:26:57;;;;;;;26.47;14.60;;;0.10;99.90;;;;;;5058721;28;20656;-77
2021/12/23 03:29:23;;;;;;;24.40;14.40;;;0.10;99.90;;;;;;5040768;28;20666;-75
2021/12/23 03:31:49;;;;;;;24.70;14.00;;;0.10;99.90;;;;;;5042882;28;20180;-78
2021/12/23 03:34:19;;;;;;;19.80;13.57;;;0.10;99.90;;;;;;5062421;28;20713;-76
2021/12/23 03:36:45;;;;;;;20.40;13.27;;;0.10;99.90;;;;;;5040020;28;20188;-76
2021/12/23 03:39:11;;;;;;;25.33;14.73;;;0.10;99.90;;;;;;5061170;28;20653;-76
2021/12/23 03:41:41;;;;;;;26.37;14.27;;;0.20;99.90;;;;;;5042148;28;20238;-76
2021/12/23 03:44:09;;;;;;;25.90;14.87;;;0.10;99.90;;;;;;5055046;28;20242;-75
2021/12/23 03:46:37;;;;;;;24.57;13.97;;;0.10;99.90;;;;;;5039231;28;21285;-76
2021/12/23 03:49:05;;;;;;;28.47;15.00;;;0.20;99.90;;;;;;5056084;28;20697;-76
2021/12/23 03:51:31;;;;;;;21.83;14.23;;;0.20;99.90;;;;;;5060767;28;20657;-76
2021/12/23 03:53:59;;;;;;;23.60;14.13;;;0.20;99.90;;;;;;5041047;28;20627;-75
2021/12/23 03:56:25;;;;;;;24.20;14.80;;;0.20;99.90;;;;;;5058868;28;20192;-76
2021/12/23 03:58:51;;;;;;;23.63;14.70;;;0.20;99.90;;;;;;5055206;28;20745;-77
2021/12/23 04:01:17;;;;;;;20.87;14.27;;;0.20;99.90;;;;;;5059788;28;20642;-76
2021/12/23 04:03:45;;;;;;;22.00;13.33;;;0.20;99.90;;;;;;5043244;28;21041;-76
2021/12/23 04:06:11;;;;;;;24.17;15.27;;;0.20;99.90;;;;;;5028773;28;20649;-76
2021/12/23 04:08:36;;;;;;;28.20;16.70;;;0.20;99.90;;;;;;5041463;28;20688;-76
2021/12/23 04:11:04;;;;;;;21.10;13.47;;;0.20;99.90;;;;;;5043395;28;20219;-76
2021/12/23 04:13:30;;;;;;;24.87;13.93;;;0.20;99.90;;;;;;5060615;28;20480;-76
2021/12/23 04:15:55;;;;;;;23.83;14.93;;;0.20;99.90;;;;;;5065169;28;20672;-76
2021/12/23 04:18:22;;;;;;;22.90;14.30;;;0.20;99.90;;;;;;5063221;28;20216;-76
2021/12/23 04:20:56;;;;;;;20.93;13.67;;;0.20;99.90;;;;;;5063351;28;20223;-76
2021/12/23 04:23:27;;;;;;;25.93;14.87;;;0.20;99.90;;;;;;5050516;28;20635;-76
2021/12/23 04:25:55;;;;;;;24.20;15.03;;;0.20;99.90;;;;;;5061716;28;20609;-76
2021/12/23 04:28:25;;;;;;;20.57;13.47;;;0.20;99.90;;;;;;5043185;28;20722;-75
2021/12/23 04:30:54;;;;;;;25.00;14.10;;;0.20;99.90;;;;;;5061821;28;21037;-76
2021/12/23 04:33:19;;;;;;;23.00;13.43;;;0.20;99.90;;;;;;5044400;28;20633;-76
2021/12/23 04:35:52;;;;;;;27.20;13.93;;;0.20;99.90;;;;;;5042925;28;20615;-76
2021/12/23 04:38:18;;;;;;;24.43;13.30;;;0.20;99.90;;;;;;5061186;28;20579;-76
2021/12/23 04:40:43;;;;;;;21.37;13.40;;;0.20;99.90;;;;;;5041025;28;20728;-76
2021/12/23 04:43:11;;;;;;;23.87;14.97;;;0.30;99.90;;;;;;5045243;28;20242;-76
2021/12/23 04:45:40;;;;;;;23.30;13.80;;;0.20;99.90;;;;;;5043262;28;20184;-76
2021/12/23 04:48:05;;;;;;;24.03;13.87;;;0.20;99.90;;;;;;5061440;28;20653;-76
2021/12/23 04:50:33;;;;;;;24.47;14.80;;;0.20;99.90;;;;;;5062778;28;20638;-76
2021/12/23 04:53:02;;;;;;;23.10;14.53;;;0.20;99.90;;;;;;5061755;28;20229;-78
2021/12/23 04:55:28;;;;;;;28.27;15.30;;;0.20;99.90;;;;;;5058429;28;20709;-76
2021/12/23 04:57:54;;;;;;;19.40;12.90;;;0.20;99.90;;;;;;5047774;28;20638;-76
2021/12/23 05:00:21;;;;;;;21.50;13.67;;;0.40;99.90;;;;;;5047357;28;20634;-76
2021/12/23 05:02:47;;;;;;;21.03;13.80;;;0.30;99.90;;;;;;5069101;28;20210;-76
2021/12/23 05:05:13;;;;;;;21.70;14.33;;;0.20;99.90;;;;;;5048514;28;20685;-76
2021/12/23 05:07:40;;;;;;;22.80;13.77;;;0.30;99.90;;;;;;5066216;28;20192;-76
2021/12/23 05:10:10;;;;;;;22.57;14.33;;;0.30;99.90;;;;;;5068074;28;20656;-76
2021/12/23 05:12:42;;;;;;;22.50;14.23;;;0.30;99.90;;;;;;5049100;28;20629;-77
2021/12/23 05:15:09;;;;;;;22.07;14.30;;;0.30;99.90;;;;;;5044071;28;20700;-76
2021/12/23 05:17:35;;;;;;;24.00;15.23;;;0.50;99.90;;;;;;5065408;28;21067;-76
2021/12/23 05:20:03;;;;;;;22.63;14.00;;;0.30;99.90;;;;;;5065440;28;20668;-77
2021/12/23 05:22:28;;;;;;;22.37;14.10;;;0.30;99.90;;;;;;5064792;28;20289;-76
2021/12/23 05:24:54;;;;;;;24.03;14.73;;;0.30;99.90;;;;;;5044762;28;20637;-76
2021/12/23 05:27:22;;;;;;;27.00;15.77;;;0.40;99.90;;;;;;5063374;28;20290;-77
2021/12/23 05:29:47;;;;;;;22.70;14.47;;;0.40;99.90;;;;;;5046752;28;20303;-76
2021/12/23 05:32:15;;;;;;;23.67;13.83;;;0.30;99.90;;;;;;5049253;28;21266;-76
2021/12/23 05:34:41;;;;;;;22.10;14.40;;;0.30;99.90;;;;;;5065307;28;20572;-76
2021/12/23 05:37:09;;;;;;;21.20;13.30;;;0.30;99.90;;;;;;5047475;28;20621;-77
2021/12/23 05:39:38;;;;;;;23.33;14.50;;;0.30;99.90;;;;;;5065359;28;20245;-76
2021/12/23 05:42:04;;;;;;;22.53;14.43;;;0.30;99.90;;;;;;5065054;28;20610;-76
2021/12/23 05:44:30;;;;;;;22.87;15.07;;;0.30;99.90;;;;;;5064727;28;20613;-77
2021/12/23 05:46:56;;;;;;;26.50;14.27;;;0.30;99.90;;;;;;5065904;28;20628;-76
2021/12/23 05:49:24;;;;;;;25.40;15.23;;;0.20;99.90;;;;;;5064537;28;20830;-77
2021/12/23 05:51:57;;;;;;;26.47;15.20;;;0.30;99.90;;;;;;5048060;28;20608;-76
2021/12/23 05:54:23;;;;;;;21.80;13.93;;;0.20;99.90;;;;;;5048761;28;20638;-77
2021/12/23 05:56:49;;;;;;;21.90;14.77;;;0.20;99.90;;;;;;5063140;28;20645;-78
2021/12/23 05:59:17;;;;;;;20.40;14.07;;;0.20;99.90;;;;;;5068190;28;20717;-79
2021/12/23 06:01:43;;;;;;;20.63;13.37;;;0.30;99.90;;;;;;5049685;28;21058;-79
2021/12/23 06:04:08;;;;;;;24.03;14.17;;;0.30;99.90;;;;;;5064808;28;20593;-79
2021/12/23 06:06:34;;;;;;;23.63;15.27;;;0.30;99.90;;;;;;5044952;28;20693;-79
2021/12/23 06:09:00;;;;;;;25.07;15.20;;;0.30;99.90;;;;;;5058360;28;20212;-78
2021/12/23 06:11:25;;;;;;;26.13;14.70;;;0.30;99.90;;;;;;5058079;28;20591;-78
2021/12/23 06:13:51;;;;;;;24.57;14.83;;;0.30;99.90;;;;;;5064434;28;20191;-79
2021/12/23 06:16:17;;;;;;;22.70;14.47;;;0.20;99.90;;;;;;5054208;28;20211;-79
2021/12/23 06:18:43;;;;;;;23.47;14.67;;;0.30;99.90;;;;;;5077069;28;20687;-79
2021/12/23 06:21:09;;;;;;;22.00;14.20;;;0.30;99.90;;;;;;5041279;28;20573;-78
2021/12/23 06:23:38;;;;;;;23.13;14.00;;;0.30;99.90;;;;;;5040435;28;20663;-78
2021/12/23 06:26:03;;;;;;;24.53;14.30;;;0.30;99.90;;;;;;5049657;28;20996;-78
2021/12/23 06:33:47;;;;;;;22.80;15.87;;;0.30;99.90;;;;;;5368794;22;20687;-74
2021/12/23 06:36:17;;;;;;;24.90;15.20;;;0.20;99.90;;;;;;5067752;28;20612;-76
2021/12/23 06:38:45;;;;;;;23.47;13.83;;;0.20;99.90;;;;;;5067757;28;20688;-75
2021/12/23 06:41:12;;;;;;;22.70;15.00;;;0.20;99.90;;;;;;5068665;28;20630;-75
2021/12/23 06:43:38;;;;;;;19.63;13.63;;;0.20;99.90;;;;;;5053584;28;20645;-79
2021/12/23 06:46:04;;;;;;;24.00;14.73;;;0.20;99.90;;;;;;5048647;28;20624;-76
2021/12/23 06:48:36;;;;;;;22.77;14.67;;;0.30;99.90;;;;;;5050784;28;20657;-76
2021/12/23 06:51:02;;;;;;;25.63;14.50;;;0.30;99.90;;;;;;5066664;28;20641;-77
2021/12/23 06:53:27;;;;;;;22.67;13.60;;;0.30;99.90;;;;;;5046559;28;20620;-77
2021/12/23 06:55:55;;;;;;;24.20;15.37;;;0.30;99.90;;;;;;5066002;28;20610;-76
2021/12/23 06:58:23;;;;;;;26.13;14.97;;;0.30;99.90;;;;;;5043524;28;20606;-76
2021/12/23 07:00:52;;;;;;;25.63;14.70;;;0.40;99.90;;;;;;5038299;28;20645;-78
2021/12/23 07:03:18;;;;;;;23.23;14.40;;;0.40;99.90;;;;;;5034980;28;20617;-78
2021/12/23 07:05:43;;;;;;;22.47;14.30;;;0.40;99.90;;;;;;5030446;28;20618;-76
2021/12/23 07:08:25;;;;;;;23.17;13.93;;;0.40;99.90;;;;;;5059151;28;20664;-76
2021/12/23 07:10:51;;;;;;;21.10;14.47;;;0.40;99.90;;;;;;5032922;28;20279;-76
2021/12/23 07:13:17;;;;;;;23.17;14.10;;;0.40;99.90;;;;;;5060464;28;20605;-75
2021/12/23 07:15:42;;;;;;;25.23;15.37;;;0.30;99.90;;;;;;5068913;28;20575;-75
2021/12/23 07:18:08;;;;;;;22.70;14.73;;;0.30;99.90;;;;;;5055003;28;20238;-77
2021/12/23 07:20:34;;;;;;;22.03;14.10;;;0.40;99.90;;;;;;5068208;28;20400;-75
2021/12/23 07:23:00;;;;;;;22.50;15.73;;;0.30;99.90;;;;;;5043690;28;20216;-76
2021/12/23 07:25:26;;;;;;;23.17;15.93;;;0.30;99.90;;;;;;5049408;28;20183;-77
2021/12/23 07:27:52;;;;;;;23.07;15.43;;;0.40;99.90;;;;;;5056270;28;20633;-77
2021/12/23 07:30:19;;;;;;;23.37;15.13;;;0.40;99.90;;;;;;5062486;28;20672;-77
2021/12/23 07:32:46;;;;;;;26.50;15.73;;;0.40;99.90;;;;;;5062931;28;20652;-77
2021/12/23 07:35:12;;;;;;;22.30;15.13;;;0.40;99.90;;;;;;5071952;28;20616;-77
2021/12/23 07:40:06;;;;;;;24.73;15.70;;;0.50;99.90;;;;;;5053463;28;21249;-76
2021/12/23 07:42:33;;;;;;;25.93;16.07;;;0.50;99.90;;;;;;5039815;28;20637;-76
2021/12/23 07:45:01;;;;;;;26.80;15.90;;;0.50;99.90;;;;;;5058002;28;21223;-76
2021/12/23 07:47:27;;;;;;;21.93;14.70;;;0.60;99.90;;;;;;5040125;28;20646;-77
2021/12/23 07:49:52;;;;;;;25.13;16.30;;;0.60;99.90;;;;;;5037111;28;20652;-78
2021/12/23 07:52:20;;;;;;;25.20;14.47;;;0.50;99.90;;;;;;5042007;28;20187;-77
2021/12/23 07:54:45;;;;;;;21.77;15.57;;;0.60;99.90;;;;;;5041193;28;20206;-76
2021/12/23 07:57:11;;;;;;;24.10;15.20;;;0.60;99.90;;;;;;5054501;28;21310;-76
2021/12/23 07:59:37;;;;;;;24.37;14.90;;;0.60;99.90;;;;;;5051388;28;20203;-78
2021/12/23 08:02:02;;;;;;;22.80;15.30;;;0.60;99.90;;;;;;5038520;28;20184;-75
2021/12/23 08:04:28;;;;;;;24.40;14.73;;;0.60;99.90;;;;;;5061707;28;20180;-77
2021/12/23 08:06:58;;;;;;;25.03;15.60;;;0.70;99.90;;;;;;5039043;28;20836;-75
2021/12/23 08:09:25;;;;;;;21.93;14.10;;;0.80;99.90;;;;;;5062687;28;20272;-76
2021/12/23 08:11:51;;;;;;;23.77;15.37;;;0.70;99.90;;;;;;5054947;28;20664;-75
2021/12/23 08:14:17;;;;;;;26.67;14.67;;;0.70;99.90;;;;;;5069885;28;20629;-76
2021/12/23 08:16:43;;;;;;;24.87;15.53;;;0.70;99.90;;;;;;5052723;28;21892;-75
2021/12/23 08:19:12;;;;;;;23.50;15.13;;;0.70;99.90;;;;;;5070344;28;20262;-77
2021/12/23 08:21:38;;;;;;;22.10;14.60;;;0.80;99.90;;;;;;5050365;28;20700;-77
2021/12/23 08:24:04;;;;;;;26.80;15.50;;;0.80;99.90;;;;;;5065059;28;20611;-76
2021/12/23 08:26:38;;;;;;;24.00;16.20;;;0.80;99.90;;;;;;5060829;28;20979;-76
2021/12/23 08:29:04;;;;;;;21.57;14.30;;;0.80;99.90;;;;;;5065271;28;22585;-76
2021/12/23 08:31:30;;;;;;;30.60;15.53;;;0.80;99.90;;;;;;5060390;28;20617;-76
2021/12/23 08:33:55;;;;;;;23.50;15.77;;;0.80;99.90;;;;;;5069749;28;20568;-75
2021/12/23 08:36:21;;;;;;;21.47;14.77;;;0.80;99.90;;;;;;5073610;28;20237;-77
2021/12/23 08:38:46;;;;;;;21.87;15.13;;;0.80;99.90;;;;;;5075971;28;20298;-76
2021/12/23 08:41:12;;;;;;;23.40;15.70;;;0.90;99.90;;;;;;5063870;28;20280;-78
2021/12/23 08:43:37;;;;;;;22.37;15.47;;;0.90;99.90;;;;;;5058477;28;20278;-76
2021/12/23 08:46:03;;;;;;;19.90;14.97;;;0.90;99.90;;;;;;5066939;28;20188;-76
2021/12/23 08:48:29;;;;;;;21.77;14.93;;;0.90;99.90;;;;;;5057957;28;20219;-77
2021/12/23 08:50:55;;;;;;;25.73;15.97;;;0.90;99.90;;;;;;5061322;28;20710;-76
2021/12/23 08:53:21;;;;;;;21.07;14.90;;;1.00;99.90;;;;;;5058321;28;20184;-77
2021/12/23 08:55:47;;;;;;;26.50;15.57;;;1.00;99.90;;;;;;5069704;28;20674;-77
2021/12/23 08:58:12;;;;;;;23.97;15.27;;;1.00;99.90;;;;;;5069635;28;20203;-76
2021/12/23 09:00:39;;;;;;;26.87;15.93;;;1.00;99.90;;;;;;5056418;28;20760;-77
2021/12/23 09:03:07;;;;;;;25.23;15.23;;;1.10;99.90;;;;;;5052491;28;20555;-77
2021/12/23 09:05:36;;;;;;;22.67;14.77;;;1.10;99.90;;;;;;5058052;28;20633;-75
2021/12/23 09:08:05;;;;;;;23.63;15.10;;;1.10;99.90;;;;;;5067716;28;20707;-75
2021/12/23 09:10:30;;;;;;;23.13;15.73;;;1.10;99.90;;;;;;5047761;28;20650;-75
2021/12/23 09:12:56;;;;;;;23.70;15.10;;;1.10;99.90;;;;;;5050724;28;21235;-77
2021/12/23 09:15:22;;;;;;;23.63;15.63;;;1.10;99.90;;;;;;5057917;28;20199;-77
2021/12/23 09:17:48;;;;;;;23.80;14.90;;;1.20;99.90;;;;;;5054696;28;20246;-75
2021/12/23 09:20:17;;;;;;;21.90;14.30;;;1.20;99.90;;;;;;5067646;28;21086;-75
2021/12/23 09:22:43;;;;;;;24.27;14.67;;;1.20;99.90;;;;;;5060255;28;20669;-75
2021/12/23 09:25:18;;;;;;;24.40;15.80;;;1.20;99.90;;;;;;5060635;28;20617;-75
2021/12/23 09:28:00;;;;;;;25.90;15.50;;;1.20;99.90;;;;;;5065519;28;20202;-75
2021/12/23 09:33:11;;;;;;;24.87;15.37;;;1.30;99.90;;;;;;5068907;28;20608;-75
2021/12/23 09:35:38;;;;;;;24.47;15.60;;;1.30;99.90;;;;;;5067322;28;20644;-75
2021/12/23 09:38:04;;;;;;;23.40;16.40;;;1.30;99.90;;;;;;5068646;28;20660;-75
2021/12/23 09:40:32;;;;;;;23.27;14.60;;;1.40;99.90;;;;;;5052077;28;21020;-75
2021/12/23 09:43:01;;;;;;;22.47;15.03;;;1.40;99.90;;;;;;5067329;28;20618;-76
2021/12/23 09:45:27;;;;;;;25.80;15.83;;;1.40;99.90;;;;;;5067179;28;20627;-76
2021/12/23 09:47:53;;;;;;;23.30;15.70;;;1.40;99.90;;;;;;5057776;28;21258;-75
2021/12/23 09:50:22;;;;;;;23.83;15.60;;;1.40;99.90;;;;;;5064886;28;20714;-75
2021/12/23 09:52:51;;;;;;;23.30;15.03;;;1.50;99.90;;;;;;5050221;28;20602;-75
2021/12/23 09:55:20;;;;;;;23.00;16.07;;;1.50;99.90;;;;;;5069114;28;20660;-76
2021/12/23 09:57:48;;;;;;;23.40;15.97;;;1.50;99.90;;;;;;5059721;28;21219;-76
2021/12/23 10:00:17;;;;;;;23.80;14.60;;;1.50;99.90;;;;;;5064765;28;20633;-76
2021/12/23 10:02:43;;;;;;;23.23;16.90;;;1.50;99.90;;;;;;5068154;28;21160;-76
2021/12/23 10:05:15;;;;;;;22.87;16.70;;;1.60;99.90;;;;;;5070357;28;20609;-76
2021/12/23 10:07:43;;;;;;;25.00;15.63;;;1.60;99.90;;;;;;5048898;28;20649;-76
2021/12/23 10:10:14;;;;;;;25.30;16.17;;;1.60;99.90;;;;;;5064442;28;20647;-76
2021/12/23 10:32:49;;;;;;;22.83;16.37;;;1.60;99.90;;;;;;5062789;28;20668;-76
2021/12/23 10:37:17;;;;;;;25.70;15.87;;;1.70;99.90;;;;;;5064993;28;20994;-78
2021/12/23 10:39:46;;;;;;;22.60;15.37;;;1.60;99.90;;;;;;5051769;28;20219;-76
2021/12/23 10:42:18;;;;;;;25.23;16.13;;;1.60;99.90;;;;;;5051406;28;20663;-76
2021/12/23 10:44:52;;;;;;;21.43;14.90;;;1.60;99.90;;;;;;5073446;28;20566;-77
2021/12/23 10:47:45;;;;;;;26.90;17.37;;;1.60;99.90;;;;;;5053045;28;20614;-76
2021/12/23 10:50:31;;;;;;;25.87;15.83;;;1.60;99.90;;;;;;5065251;28;20745;-76
2021/12/23 10:53:08;;;;;;;23.70;15.90;;;1.70;99.90;;;;;;5055929;28;20574;-76
2021/12/23 10:58:19;;;;;;;21.50;16.27;;;1.60;99.90;;;;;;5065291;28;20633;-81
2021/12/23 11:00:52;;;;;;;22.20;15.00;;;1.60;99.90;;;;;;5048577;28;20630;-76
2021/12/23 11:03:32;;;;;;;23.27;16.40;;;1.60;99.90;;;;;;5052190;28;20636;-76
2021/12/23 11:06:17;;;;;;;20.70;14.80;;;1.70;99.90;;;;;;5056378;28;20615;-75
2021/12/23 11:09:13;;;;;;;24.87;16.37;;;1.70;99.90;;;;;;5062590;28;20665;-76
2021/12/23 11:39:32;;;;;;;20.50;15.63;;;2.00;99.90;;;;;;5062549;28;20691;-76
2021/12/23 11:42:04;;;;;;;19.60;14.80;;;1.90;99.90;;;;;;5049257;28;20662;-76
2021/12/23 11:44:31;;;;;;;21.50;16.07;;;2.00;99.90;;;;;;5055845;28;20638;-76
2021/12/23 11:47:01;;;;;;;25.30;16.00;;;1.90;99.90;;;;;;5052744;28;20687;-76
2021/12/23 11:49:26;;;;;;;21.80;15.30;;;1.90;99.90;;;;;;5070457;28;20634;-75
2021/12/23 11:51:55;;;;;;;21.37;16.30;;;2.00;99.90;;;;;;5056562;28;20936;-75
2021/12/23 11:54:31;;;;;;;21.30;16.20;;;2.00;99.90;;;;;;5061173;28;20868;-76
2021/12/23 11:57:17;;;;;;;22.57;15.50;;;2.10;99.90;;;;;;5070552;28;20599;-76
2021/12/23 11:59:55;;;;;;;22.23;15.60;;;2.10;99.90;;;;;;5063340;28;21189;-75
2021/12/23 12:02:24;;;;;;;20.97;16.37;;;2.10;99.90;;;;;;5064974;28;20593;-76
2021/12/23 12:04:59;;;;;;;22.60;16.50;;;2.10;99.90;;;;;;5055127;28;20618;-76
2021/12/23 12:07:25;;;;;;;21.10;15.50;;;2.20;99.90;;;;;;5065389;28;21078;-76
2021/12/23 12:10:04;;;;;;;21.23;16.13;;;2.30;99.90;;;;;;5046941;28;20676;-76
2021/12/23 12:12:32;;;;;;;24.47;16.20;;;2.30;99.90;;;;;;5061736;28;20559;-76
2021/12/23 12:14:59;;;;;;;24.20;15.77;;;2.20;99.90;;;;;;5050962;28;20606;-77
2021/12/23 12:17:24;;;;;;;24.60;16.30;;;2.30;99.90;;;;;;5062753;28;20675;-76
2021/12/23 12:20:37;;;;;;;21.57;16.43;;;2.30;99.90;;;;;;5074671;28;20684;-76
2021/12/23 12:23:06;;;;;;;21.90;15.53;;;2.30;99.90;;;;;;5066357;28;20581;-76
2021/12/23 12:25:38;;;;;;;21.23;16.03;;;2.30;99.90;;;;;;5072299;28;20645;-78
2021/12/23 12:28:03;;;;;;;22.67;15.77;;;2.30;99.90;;;;;;5056092;28;20762;-78
2021/12/23 12:31:06;;;;;;;21.10;15.67;;;2.40;99.90;;;;;;5050223;28;20653;-77
2021/12/23 12:33:34;;;;;;;22.07;15.70;;;2.40;99.90;;;;;;5059503;28;20253;-76
2021/12/23 12:36:03;;;;;;;24.23;19.03;;;2.40;99.90;;;;;;5058969;28;20652;-76
2021/12/23 12:38:43;;;;;;;23.07;16.10;;;2.40;99.90;;;;;;5057434;28;20665;-75
2021/12/23 12:41:17;;;;;;;21.67;16.40;;;2.50;99.90;;;;;;5068791;28;20638;-75
2021/12/23 12:46:13;;;;;;;22.50;16.37;;;2.50;99.90;;;;;;5067533;28;21083;-75
2021/12/23 12:49:01;;;;;;;24.37;15.60;;;2.50;99.90;;;;;;5047115;28;20212;-77
2021/12/23 12:51:33;;;;;;;23.20;16.27;;;2.50;99.90;;;;;;5046806;28;20677;-77
2021/12/23 12:54:04;;;;;;;20.90;15.27;;;2.50;99.90;;;;;;5067384;28;20644;-76
2021/12/23 12:56:32;;;;;;;22.93;16.23;;;2.60;99.90;;;;;;5065983;28;20590;-76
2021/12/23 12:58:57;;;;;;;23.40;16.37;;;2.60;99.90;;;;;;5060425;28;20656;-75
2021/12/23 13:01:51;;;;;;;20.23;16.00;;;2.60;99.90;;;;;;5062339;28;20708;-76
2021/12/23 13:04:24;;;;;;;21.03;15.77;;;2.60;99.90;;;;;;5045977;28;20208;-76
2021/12/23 13:06:52;;;;;;;22.80;16.00;;;2.60;99.90;;;;;;5063646;28;20606;-75
2021/12/23 13:09:32;;;;;;;25.07;15.77;;;2.40;99.90;;;;;;5056779;28;20662;-76
2021/12/23 13:12:00;;;;;;;23.60;15.90;;;2.50;99.90;;;;;;5052832;28;21234;-76
2021/12/23 13:15:16;;;;;;;21.90;15.70;;;2.50;99.90;;;;;;5051642;28;20611;-77
2021/12/23 13:17:48;;;;;;;23.57;16.50;;;2.40;99.90;;;;;;5046723;28;20637;-75
2021/12/23 13:20:15;;;;;;;25.13;16.00;;;2.40;99.90;;;;;;5053397;28;20621;-75
2021/12/23 13:22:43;;;;;;;22.87;16.50;;;2.40;99.90;;;;;;5062488;28;21057;-75
2021/12/23 13:25:09;;;;;;;22.00;16.77;;;2.40;99.90;;;;;;5068533;28;20596;-75
2021/12/23 13:27:41;;;;;;;23.33;17.80;;;2.40;99.90;;;;;;5068278;28;20728;-75
2021/12/23 13:30:10;;;;;;;25.80;19.23;;;2.40;99.90;;;;;;5064451;28;20657;-75
2021/12/23 13:32:36;;;;;;;26.63;17.87;;;2.30;99.90;;;;;;5065360;28;20622;-75
2021/12/23 13:35:13;;;;;;;24.70;17.63;;;2.30;99.90;;;;;;5046283;28;20962;-76
2021/12/23 13:37:45;;;;;;;25.50;18.37;;;2.30;99.90;;;;;;5063120;28;20638;-75
2021/12/23 13:40:11;;;;;;;27.30;18.27;;;2.20;99.90;;;;;;5062715;28;20703;-75
2021/12/23 13:42:41;;;;;;;29.27;18.83;;;2.20;99.90;;;;;;5065911;28;20697;-75
2021/12/23 13:45:07;;;;;;;25.87;17.30;;;2.20;99.90;;;;;;5056248;28;20712;-75
2021/12/23 13:47:35;;;;;;;28.60;18.30;;;2.20;99.90;;;;;;5055218;28;21417;-75
2021/12/23 13:50:03;;;;;;;27.70;18.00;;;2.20;99.90;;;;;;5066033;28;20625;-76
2021/12/23 13:52:31;;;;;;;26.10;17.80;;;2.10;99.90;;;;;;5063913;28;20606;-76